sensor_id;sensor_type;location;lat;lon;timestamp;pressure;altitude;pressure_sealevel;temperature;humidity
56600;BME280;51832;48.152;11.530;2024-02-14T00:01:02;95901.31;;;6.37;78.87
56600;BME280;51832;48.152;11.530;2024-02-14T00:06:04;95916.31;;;6.28;80.28
56600;BME280;51832;48.152;11.530;2024-02-14T00:11:05;95914.91;;;6.32;80.14
56600;BME280;51832;48.152;11.530;2024-02-14T00:16:06;95914.06;;;6.25;80.25
56600;BME280;51832;48.152;11.530;2024-02-14T00:21:07;95914.09;;;6.32;80.48
56600;BME280;51832;48.152;11.530;2024-02-14T00:26:07;95914.19;;;6.38;79.50
56600;BME280;51832;48.152;11.530;2024-02-14T00:31:08;95910.78;;;6.38;78.96
56600;BME280;51832;48.152;11.530;2024-02-14T00:36:08;95912.56;;;6.37;79.96
56600;BME280;51832;48.152;11.530;2024-02-14T00:41:10;95908.84;;;6.47;79.49
56600;BME280;51832;48.152;11.530;2024-02-14T00:46:17;95918.00;;;6.21;80.15
56600;BME280;51832;48.152;11.530;2024-02-14T00:51:17;95918.44;;;6.39;78.84
56600;BME280;51832;48.152;11.530;2024-02-14T00:56:18;95921.78;;;6.33;79.52
56600;BME280;51832;48.152;11.530;2024-02-14T01:01:18;95924.50;;;6.25;79.50
56600;BME280;51832;48.152;11.530;2024-02-14T01:06:19;95920.59;;;6.36;79.14
56600;BME280;51832;48.152;11.530;2024-02-14T01:11:20;95924.44;;;6.04;79.64
56600;BME280;51832;48.152;11.530;2024-02-14T01:16:20;95930.34;;;6.42;78.08
56600;BME280;51832;48.152;11.530;2024-02-14T01:21:21;95922.00;;;6.53;77.52
56600;BME280;51832;48.152;11.530;2024-02-14T01:26:21;95929.97;;;6.30;78.20
56600;BME280;51832;48.152;11.530;2024-02-14T01:31:22;95924.03;;;6.58;78.27
56600;BME280;51832;48.152;11.530;2024-02-14T01:36:22;95922.88;;;6.60;76.61
56600;BME280;51832;48.152;11.530;2024-02-14T01:41:23;95927.09;;;6.61;76.93
56600;BME280;51832;48.152;11.530;2024-02-14T01:46:23;95930.91;;;6.59;77.36
56600;BME280;51832;48.152;11.530;2024-02-14T01:51:24;95929.72;;;6.61;76.53
56600;BME280;51832;48.152;11.530;2024-02-14T01:56:25;95928.91;;;6.61;76.88
56600;BME280;51832;48.152;11.530;2024-02-14T02:01:27;95932.00;;;6.50;76.37
56600;BME280;51832;48.152;11.530;2024-02-14T02:06:28;95931.44;;;6.69;75.84
56600;BME280;51832;48.152;11.530;2024-02-14T02:11:29;95938.53;;;6.39;77.08
56600;BME280;51832;48.152;11.530;2024-02-14T02:16:29;95941.97;;;6.39;76.71
56600;BME280;51832;48.152;11.530;2024-02-14T02:21:30;95928.63;;;6.34;76.22
56600;BME280;51832;48.152;11.530;2024-02-14T02:26:31;95934.44;;;6.51;75.96
56600;BME280;51832;48.152;11.530;2024-02-14T02:31:31;95937.50;;;6.55;75.88
56600;BME280;51832;48.152;11.530;2024-02-14T02:36:32;95939.53;;;6.38;77.11
56600;BME280;51832;48.152;11.530;2024-02-14T02:41:33;95934.00;;;6.48;76.45
56600;BME280;51832;48.152;11.530;2024-02-14T02:46:33;95928.28;;;6.59;75.06
56600;BME280;51832;48.152;11.530;2024-02-14T02:51:34;95937.56;;;6.61;75.54
56600;BME280;51832;48.152;11.530;2024-02-14T02:56:34;95931.84;;;6.72;74.39
56600;BME280;51832;48.152;11.530;2024-02-14T03:01:36;95936.72;;;6.75;74.66
56600;BME280;51832;48.152;11.530;2024-02-14T03:06:36;95932.28;;;6.55;74.85
56600;BME280;51832;48.152;11.530;2024-02-14T03:11:37;95930.94;;;6.44;76.69
56600;BME280;51832;48.152;11.530;2024-02-14T03:16:38;95939.44;;;6.67;75.33
56600;BME280;51832;48.152;11.530;2024-02-14T03:21:39;95949.91;;;6.67;74.93
56600;BME280;51832;48.152;11.530;2024-02-14T03:26:39;95942.03;;;6.46;76.07
56600;BME280;51832;48.152;11.530;2024-02-14T03:31:40;95929.03;;;6.53;75.74
56600;BME280;51832;48.152;11.530;2024-02-14T03:36:40;95940.03;;;6.48;76.43
56600;BME280;51832;48.152;11.530;2024-02-14T03:41:41;95944.59;;;6.25;76.51
56600;BME280;51832;48.152;11.530;2024-02-14T03:46:41;95941.97;;;6.39;75.46
56600;BME280;51832;48.152;11.530;2024-02-14T03:51:41;95943.88;;;6.16;76.56
56600;BME280;51832;48.152;11.530;2024-02-14T03:56:42;95947.38;;;6.23;75.55
56600;BME280;51832;48.152;11.530;2024-02-14T04:01:45;95944.91;;;6.00;76.81
56600;BME280;51832;48.152;11.530;2024-02-14T04:06:46;95942.06;;;6.02;76.77
56600;BME280;51832;48.152;11.530;2024-02-14T04:11:46;95938.66;;;5.87;77.37
56600;BME280;51832;48.152;11.530;2024-02-14T04:16:48;95938.19;;;5.83;76.72
56600;BME280;51832;48.152;11.530;2024-02-14T04:21:48;95942.13;;;5.64;77.15
56600;BME280;51832;48.152;11.530;2024-02-14T04:26:49;95935.97;;;5.95;76.04
56600;BME280;51832;48.152;11.530;2024-02-14T04:31:49;95934.34;;;6.09;75.32
56600;BME280;51832;48.152;11.530;2024-02-14T04:36:50;95933.53;;;6.08;74.86
56600;BME280;51832;48.152;11.530;2024-02-14T04:41:51;95935.59;;;6.13;75.58
56600;BME280;51832;48.152;11.530;2024-02-14T04:46:53;95936.94;;;6.09;73.90
56600;BME280;51832;48.152;11.530;2024-02-14T04:51:54;95931.28;;;6.05;75.29
56600;BME280;51832;48.152;11.530;2024-02-14T04:56:55;95936.78;;;6.10;74.65
56600;BME280;51832;48.152;11.530;2024-02-14T05:01:55;95943.59;;;6.40;72.93
56600;BME280;51832;48.152;11.530;2024-02-14T05:06:56;95936.09;;;6.37;72.77
56600;BME280;51832;48.152;11.530;2024-02-14T05:11:57;95929.44;;;6.35;72.40
56600;BME280;51832;48.152;11.530;2024-02-14T05:16:57;95928.97;;;6.31;71.96
56600;BME280;51832;48.152;11.530;2024-02-14T05:22:01;95924.94;;;6.29;72.19
56600;BME280;51832;48.152;11.530;2024-02-14T05:27:02;95931.19;;;6.13;72.25
56600;BME280;51832;48.152;11.530;2024-02-14T05:32:02;95928.47;;;6.21;72.10
56600;BME280;51832;48.152;11.530;2024-02-14T05:37:03;95934.66;;;6.35;70.64
56600;BME280;51832;48.152;11.530;2024-02-14T05:42:05;95942.16;;;6.23;72.13
56600;BME280;51832;48.152;11.530;2024-02-14T05:47:06;95938.19;;;6.27;71.92
56600;BME280;51832;48.152;11.530;2024-02-14T05:52:07;95939.63;;;6.30;70.85
56600;BME280;51832;48.152;11.530;2024-02-14T05:57:08;95934.19;;;6.46;70.59
56600;BME280;51832;48.152;11.530;2024-02-14T06:02:08;95949.06;;;8.14;100.00
56600;BME280;51832;48.152;11.530;2024-02-14T06:07:10;95947.31;;;8.89;81.29
56600;BME280;51832;48.152;11.530;2024-02-14T06:12:11;95954.22;;;9.03;72.45
56600;BME280;51832;48.152;11.530;2024-02-14T06:17:12;95956.63;;;8.91;70.91
56600;BME280;51832;48.152;11.530;2024-02-14T06:22:13;95958.41;;;7.96;65.98
56600;BME280;51832;48.152;11.530;2024-02-14T06:27:13;95958.97;;;7.57;66.81
56600;BME280;51832;48.152;11.530;2024-02-14T06:32:14;95964.25;;;7.35;69.06
56600;BME280;51832;48.152;11.530;2024-02-14T06:37:14;95960.56;;;7.51;68.96
56600;BME280;51832;48.152;11.530;2024-02-14T06:42:17;95971.94;;;7.43;69.10
56600;BME280;51832;48.152;11.530;2024-02-14T06:47:18;95963.53;;;7.48;68.90
56600;BME280;51832;48.152;11.530;2024-02-14T06:52:18;95962.03;;;7.60;69.20
56600;BME280;51832;48.152;11.530;2024-02-14T06:57:19;95963.44;;;7.35;70.13
56600;BME280;51832;48.152;11.530;2024-02-14T07:02:19;95978.97;;;7.36;71.05
56600;BME280;51832;48.152;11.530;2024-02-14T07:07:20;95984.53;;;7.55;70.63
56600;BME280;51832;48.152;11.530;2024-02-14T07:12:20;95990.66;;;7.68;69.74
56600;BME280;51832;48.152;11.530;2024-02-14T07:17:21;95995.72;;;7.70;69.48
56600;BME280;51832;48.152;11.530;2024-02-14T07:22:21;96007.91;;;7.56;69.28
56600;BME280;51832;48.152;11.530;2024-02-14T07:27:22;96004.84;;;7.74;67.32
56600;BME280;51832;48.152;11.530;2024-02-14T07:32:24;96006.72;;;7.59;66.25
56600;BME280;51832;48.152;11.530;2024-02-14T07:37:24;96018.81;;;7.60;65.45
56600;BME280;51832;48.152;11.530;2024-02-14T07:42:25;96007.19;;;7.69;65.11
56600;BME280;51832;48.152;11.530;2024-02-14T07:47:25;96020.69;;;7.44;65.21
56600;BME280;51832;48.152;11.530;2024-02-14T07:52:26;96032.31;;;7.84;63.79
56600;BME280;51832;48.152;11.530;2024-02-14T07:57:26;96023.53;;;7.99;63.01
56600;BME280;51832;48.152;11.530;2024-02-14T08:02:27;96028.84;;;8.05;63.03
56600;BME280;51832;48.152;11.530;2024-02-14T08:07:29;96022.78;;;8.05;63.30
56600;BME280;51832;48.152;11.530;2024-02-14T08:12:30;96033.56;;;8.16;62.78
56600;BME280;51832;48.152;11.530;2024-02-14T08:17:31;96033.19;;;8.19;63.59
56600;BME280;51832;48.152;11.530;2024-02-14T08:22:32;96035.31;;;8.37;63.08
56600;BME280;51832;48.152;11.530;2024-02-14T08:27:32;96038.16;;;8.83;62.00
56600;BME280;51832;48.152;11.530;2024-02-14T08:32:34;96040.94;;;8.75;61.90
56600;BME280;51832;48.152;11.530;2024-02-14T08:37:34;96037.19;;;9.04;61.04
56600;BME280;51832;48.152;11.530;2024-02-14T08:42:37;96044.34;;;9.23;59.51
56600;BME280;51832;48.152;11.530;2024-02-14T08:47:37;96032.19;;;9.09;59.19
56600;BME280;51832;48.152;11.530;2024-02-14T08:52:38;96024.38;;;9.49;58.24
56600;BME280;51832;48.152;11.530;2024-02-14T08:57:38;96035.91;;;9.54;58.64
56600;BME280;51832;48.152;11.530;2024-02-14T09:02:38;96040.34;;;10.00;56.68
56600;BME280;51832;48.152;11.530;2024-02-14T09:07:39;96050.25;;;9.98;56.57
56600;BME280;51832;48.152;11.530;2024-02-14T09:12:41;96035.84;;;10.53;53.80
56600;BME280;51832;48.152;11.530;2024-02-14T09:17:42;96030.41;;;10.42;53.63
56600;BME280;51832;48.152;11.530;2024-02-14T09:22:43;96030.53;;;11.18;61.80
56600;BME280;51832;48.152;11.530;2024-02-14T09:27:43;96018.97;;;10.74;53.82
56600;BME280;51832;48.152;11.530;2024-02-14T09:32:44;96025.94;;;11.07;52.66
56600;BME280;51832;48.152;11.530;2024-02-14T09:37:45;96032.09;;;10.87;52.84
56600;BME280;51832;48.152;11.530;2024-02-14T09:42:53;96022.69;;;11.36;51.41
56600;BME280;51832;48.152;11.530;2024-02-14T09:48:04;96028.53;;;11.13;54.03
56600;BME280;51832;48.152;11.530;2024-02-14T09:53:07;96026.22;;;11.23;53.20
56600;BME280;51832;48.152;11.530;2024-02-14T09:58:08;96027.09;;;11.17;52.82
56600;BME280;51832;48.152;11.530;2024-02-14T10:03:09;96022.47;;;11.44;52.38
56600;BME280;51832;48.152;11.530;2024-02-14T10:08:11;96033.66;;;11.64;50.82
56600;BME280;51832;48.152;11.530;2024-02-14T10:13:11;96026.50;;;11.78;50.11
56600;BME280;51832;48.152;11.530;2024-02-14T10:18:12;96013.84;;;12.55;51.29
56600;BME280;51832;48.152;11.530;2024-02-14T10:23:12;96013.84;;;12.55;51.34
56600;BME280;51832;48.152;11.530;2024-02-14T10:28:13;96008.66;;;12.96;49.31
56600;BME280;51832;48.152;11.530;2024-02-14T10:33:14;96016.28;;;13.23;48.52
56600;BME280;51832;48.152;11.530;2024-02-14T10:38:15;96009.84;;;13.60;47.86
56600;BME280;51832;48.152;11.530;2024-02-14T10:43:18;96011.06;;;13.46;48.65
56600;BME280;51832;48.152;11.530;2024-02-14T10:48:22;96015.28;;;13.35;49.01
56600;BME280;51832;48.152;11.530;2024-02-14T10:53:25;96014.84;;;14.03;47.36
56600;BME280;51832;48.152;11.530;2024-02-14T10:58:29;96000.72;;;14.44;47.26
56600;BME280;51832;48.152;11.530;2024-02-14T11:03:31;96015.06;;;14.02;48.21
56600;BME280;51832;48.152;11.530;2024-02-14T11:08:32;96006.31;;;13.36;48.96
56600;BME280;51832;48.152;11.530;2024-02-14T11:13:35;96004.81;;;13.10;49.50
56600;BME280;51832;48.152;11.530;2024-02-14T11:18:35;95998.44;;;13.48;49.31
56600;BME280;51832;48.152;11.530;2024-02-14T11:23:37;95996.09;;;13.93;48.13
56600;BME280;51832;48.152;11.530;2024-02-14T11:28:37;95991.38;;;14.07;48.22
56600;BME280;51832;48.152;11.530;2024-02-14T11:33:41;95991.50;;;14.00;49.79
56600;BME280;51832;48.152;11.530;2024-02-14T11:38:41;95982.50;;;14.01;49.93
56600;BME280;51832;48.152;11.530;2024-02-14T11:43:51;95977.13;;;14.19;50.04
56600;BME280;51832;48.152;11.530;2024-02-14T11:48:51;95974.88;;;13.70;51.08
56600;BME280;51832;48.152;11.530;2024-02-14T11:53:53;95967.09;;;14.33;49.95
56600;BME280;51832;48.152;11.530;2024-02-14T11:58:55;95959.38;;;14.43;48.62
56600;BME280;51832;48.152;11.530;2024-02-14T12:03:58;95969.34;;;14.65;48.67
56600;BME280;51832;48.152;11.530;2024-02-14T12:08:59;95946.72;;;14.45;48.94
56600;BME280;51832;48.152;11.530;2024-02-14T12:14:02;95961.09;;;14.49;49.43
56600;BME280;51832;48.152;11.530;2024-02-14T12:19:14;95953.56;;;14.70;48.74
56600;BME280;51832;48.152;11.530;2024-02-14T12:24:15;95978.13;;;14.30;49.43
56600;BME280;51832;48.152;11.530;2024-02-14T12:29:16;95966.97;;;14.91;48.49
56600;BME280;51832;48.152;11.530;2024-02-14T12:34:17;95959.75;;;15.32;47.11
56600;BME280;51832;48.152;11.530;2024-02-14T12:39:20;95956.41;;;15.08;47.63
56600;BME280;51832;48.152;11.530;2024-02-14T12:44:21;95955.66;;;14.96;46.14
56600;BME280;51832;48.152;11.530;2024-02-14T12:49:21;95963.31;;;14.81;46.53
56600;BME280;51832;48.152;11.530;2024-02-14T12:54:22;95965.00;;;14.23;51.95
56600;BME280;51832;48.152;11.530;2024-02-14T12:59:22;95964.56;;;13.80;54.48
56600;BME280;51832;48.152;11.530;2024-02-14T13:04:23;95967.91;;;14.34;55.97
56600;BME280;51832;48.152;11.530;2024-02-14T13:09:23;95964.56;;;14.15;56.51
56600;BME280;51832;48.152;11.530;2024-02-14T13:14:26;95947.16;;;14.54;56.82
56600;BME280;51832;48.152;11.530;2024-02-14T13:19:26;95951.50;;;14.72;56.65
56600;BME280;51832;48.152;11.530;2024-02-14T13:24:27;95957.19;;;14.52;58.23
56600;BME280;51832;48.152;11.530;2024-02-14T13:29:28;95959.94;;;14.97;59.71
56600;BME280;51832;48.152;11.530;2024-02-14T13:34:29;95961.38;;;14.76;59.68
56600;BME280;51832;48.152;11.530;2024-02-14T13:39:29;95950.16;;;14.57;60.14
56600;BME280;51832;48.152;11.530;2024-02-14T13:44:30;95964.47;;;14.45;59.91
56600;BME280;51832;48.152;11.530;2024-02-14T13:49:30;95964.00;;;14.76;59.15
56600;BME280;51832;48.152;11.530;2024-02-14T13:54:31;95957.97;;;14.92;56.91
56600;BME280;51832;48.152;11.530;2024-02-14T13:59:32;95951.56;;;15.95;53.36
56600;BME280;51832;48.152;11.530;2024-02-14T14:04:32;95953.31;;;15.90;51.49
56600;BME280;51832;48.152;11.530;2024-02-14T14:09:34;95944.53;;;16.06;50.06
56600;BME280;51832;48.152;11.530;2024-02-14T14:14:36;95936.66;;;17.20;47.59
56600;BME280;51832;48.152;11.530;2024-02-14T14:19:36;95941.53;;;18.34;45.29
56600;BME280;51832;48.152;11.530;2024-02-14T14:24:37;95949.28;;;18.83;43.11
56600;BME280;51832;48.152;11.530;2024-02-14T14:29:37;95961.00;;;18.35;44.28
56600;BME280;51832;48.152;11.530;2024-02-14T14:34:37;95952.25;;;16.46;50.40
56600;BME280;51832;48.152;11.530;2024-02-14T14:39:38;95950.75;;;16.94;49.25
56600;BME280;51832;48.152;11.530;2024-02-14T14:44:38;95960.50;;;18.85;44.26
56600;BME280;51832;48.152;11.530;2024-02-14T14:49:39;95956.28;;;18.99;42.80
56600;BME280;51832;48.152;11.530;2024-02-14T14:54:40;95964.09;;;20.53;42.29
56600;BME280;51832;48.152;11.530;2024-02-14T14:59:41;95976.56;;;17.74;46.98
56600;BME280;51832;48.152;11.530;2024-02-14T15:04:41;95986.13;;;18.44;45.37
56600;BME280;51832;48.152;11.530;2024-02-14T15:09:44;95980.34;;;18.20;46.14
56600;BME280;51832;48.152;11.530;2024-02-14T15:14:45;95985.97;;;15.74;55.46
56600;BME280;51832;48.152;11.530;2024-02-14T15:19:45;95988.84;;;15.55;56.96
56600;BME280;51832;48.152;11.530;2024-02-14T15:24:46;95983.59;;;15.15;60.15
56600;BME280;51832;48.152;11.530;2024-02-14T15:29:47;95981.03;;;15.20;61.41
56600;BME280;51832;48.152;11.530;2024-02-14T15:35:07;95989.94;;;15.43;61.41
56600;BME280;51832;48.152;11.530;2024-02-14T15:40:09;95996.41;;;15.07;63.79
56600;BME280;51832;48.152;11.530;2024-02-14T15:45:10;95993.22;;;14.93;64.96
56600;BME280;51832;48.152;11.530;2024-02-14T15:50:17;96004.94;;;14.69;66.49
56600;BME280;51832;48.152;11.530;2024-02-14T15:55:17;95991.75;;;14.85;65.84
56600;BME280;51832;48.152;11.530;2024-02-14T16:00:18;96001.09;;;14.88;66.37
56600;BME280;51832;48.152;11.530;2024-02-14T16:05:19;95996.41;;;15.07;65.64
56600;BME280;51832;48.152;11.530;2024-02-14T16:10:20;95991.25;;;15.00;65.27
56600;BME280;51832;48.152;11.530;2024-02-14T16:15:21;95994.88;;;14.82;65.45
56600;BME280;51832;48.152;11.530;2024-02-14T16:20:22;96000.91;;;15.06;64.67
56600;BME280;51832;48.152;11.530;2024-02-14T16:25:22;95997.25;;;14.96;64.37
56600;BME280;51832;48.152;11.530;2024-02-14T16:30:23;96007.47;;;14.64;65.28
56600;BME280;51832;48.152;11.530;2024-02-14T16:35:23;96002.47;;;14.79;64.64
56600;BME280;51832;48.152;11.530;2024-02-14T16:40:24;96008.28;;;14.52;65.74
56600;BME280;51832;48.152;11.530;2024-02-14T16:45:27;96015.41;;;14.75;64.77
56600;BME280;51832;48.152;11.530;2024-02-14T16:50:27;96022.22;;;14.60;65.12
56600;BME280;51832;48.152;11.530;2024-02-14T16:55:29;96028.09;;;14.50;65.33
56600;BME280;51832;48.152;11.530;2024-02-14T17:00:29;96023.16;;;14.18;65.79
56600;BME280;51832;48.152;11.530;2024-02-14T17:05:29;96032.84;;;14.48;63.54
56600;BME280;51832;48.152;11.530;2024-02-14T17:10:30;96020.63;;;14.58;62.80
56600;BME280;51832;48.152;11.530;2024-02-14T17:15:32;96026.69;;;14.36;63.42
56600;BME280;51832;48.152;11.530;2024-02-14T17:20:32;96013.25;;;14.49;62.20
56600;BME280;51832;48.152;11.530;2024-02-14T17:25:32;96017.50;;;14.27;63.70
56600;BME280;51832;48.152;11.530;2024-02-14T17:30:33;96029.03;;;14.55;62.66
56600;BME280;51832;48.152;11.530;2024-02-14T17:35:34;96028.31;;;14.37;63.34
56600;BME280;51832;48.152;11.530;2024-02-14T17:40:34;96031.97;;;14.36;63.66
56600;BME280;51832;48.152;11.530;2024-02-14T17:45:35;96037.50;;;14.22;64.04
56600;BME280;51832;48.152;11.530;2024-02-14T17:50:36;96036.13;;;14.08;64.49
56600;BME280;51832;48.152;11.530;2024-02-14T17:55:37;96041.69;;;14.53;63.29
56600;BME280;51832;48.152;11.530;2024-02-14T18:00:37;96030.97;;;14.72;62.57
56600;BME280;51832;48.152;11.530;2024-02-14T18:05:38;96033.16;;;14.28;63.61
56600;BME280;51832;48.152;11.530;2024-02-14T18:10:42;96033.53;;;14.43;63.54
56600;BME280;51832;48.152;11.530;2024-02-14T18:15:43;96028.88;;;14.27;64.65
56600;BME280;51832;48.152;11.530;2024-02-14T18:20:44;96034.63;;;14.24;65.35
56600;BME280;51832;48.152;11.530;2024-02-14T18:25:45;96041.31;;;14.15;65.69
56600;BME280;51832;48.152;11.530;2024-02-14T18:30:45;96041.44;;;14.20;65.39
56600;BME280;51832;48.152;11.530;2024-02-14T18:35:46;96030.13;;;14.36;64.41
56600;BME280;51832;48.152;11.530;2024-02-14T18:40:47;96033.25;;;14.10;65.69
56600;BME280;51832;48.152;11.530;2024-02-14T18:45:49;96024.41;;;13.93;66.29
56600;BME280;51832;48.152;11.530;2024-02-14T18:50:52;96018.97;;;13.87;66.69
56600;BME280;51832;48.152;11.530;2024-02-14T18:55:54;96023.38;;;13.94;66.13
56600;BME280;51832;48.152;11.530;2024-02-14T19:00:55;96020.66;;;13.82;66.58
56600;BME280;51832;48.152;11.530;2024-02-14T19:05:56;96013.97;;;13.68;66.64
56600;BME280;51832;48.152;11.530;2024-02-14T19:10:57;96023.50;;;13.57;67.14
56600;BME280;51832;48.152;11.530;2024-02-14T19:15:57;96014.22;;;13.25;67.71
56600;BME280;51832;48.152;11.530;2024-02-14T19:20:58;96014.28;;;13.18;69.00
56600;BME280;51832;48.152;11.530;2024-02-14T19:25:58;96008.75;;;13.38;68.22
56600;BME280;51832;48.152;11.530;2024-02-14T19:30:59;95996.81;;;13.47;67.95
56600;BME280;51832;48.152;11.530;2024-02-14T19:35:59;96008.66;;;13.14;70.15
56600;BME280;51832;48.152;11.530;2024-02-14T19:41:00;95996.78;;;12.87;71.71
56600;BME280;51832;48.152;11.530;2024-02-14T19:46:00;95989.31;;;13.14;70.43
56600;BME280;51832;48.152;11.530;2024-02-14T19:51:01;96000.91;;;13.31;70.17
56600;BME280;51832;48.152;11.530;2024-02-14T19:56:02;96003.69;;;13.36;70.31
56600;BME280;51832;48.152;11.530;2024-02-14T20:01:03;96004.53;;;13.19;70.81
56600;BME280;51832;48.152;11.530;2024-02-14T20:06:04;96009.09;;;13.11;71.49
56600;BME280;51832;48.152;11.530;2024-02-14T20:11:05;96012.19;;;12.90;72.59
56600;BME280;51832;48.152;11.530;2024-02-14T20:16:06;96013.59;;;12.93;72.48
56600;BME280;51832;48.152;11.530;2024-02-14T20:21:07;96018.47;;;13.07;72.48
56600;BME280;51832;48.152;11.530;2024-02-14T20:26:08;96017.47;;;12.90;73.33
56600;BME280;51832;48.152;11.530;2024-02-14T20:31:09;96019.81;;;12.98;73.05
56600;BME280;51832;48.152;11.530;2024-02-14T20:36:10;96016.53;;;12.66;75.20
56600;BME280;51832;48.152;11.530;2024-02-14T20:41:10;96016.09;;;12.51;76.33
56600;BME280;51832;48.152;11.530;2024-02-14T20:46:11;96004.56;;;12.64;76.28
56600;BME280;51832;48.152;11.530;2024-02-14T20:51:13;96009.69;;;12.59;76.68
56600;BME280;51832;48.152;11.530;2024-02-14T20:56:13;95999.09;;;12.29;78.49
56600;BME280;51832;48.152;11.530;2024-02-14T21:01:14;96001.50;;;12.67;76.34
56600;BME280;51832;48.152;11.530;2024-02-14T21:06:16;95998.94;;;12.42;77.97
56600;BME280;51832;48.152;11.530;2024-02-14T21:11:17;96004.06;;;12.55;77.80
56600;BME280;51832;48.152;11.530;2024-02-14T21:16:18;96001.13;;;12.45;78.45
56600;BME280;51832;48.152;11.530;2024-02-14T21:21:19;95992.84;;;12.60;77.56
56600;BME280;51832;48.152;11.530;2024-02-14T21:26:19;96004.28;;;12.54;78.45
56600;BME280;51832;48.152;11.530;2024-02-14T21:31:20;96002.16;;;12.62;77.27
56600;BME280;51832;48.152;11.530;2024-02-14T21:36:23;96001.06;;;12.70;77.50
56600;BME280;51832;48.152;11.530;2024-02-14T21:41:23;96004.22;;;12.42;78.98
56600;BME280;51832;48.152;11.530;2024-02-14T21:46:24;96000.41;;;12.56;78.46
56600;BME280;51832;48.152;11.530;2024-02-14T21:51:25;96001.28;;;12.50;78.79
56600;BME280;51832;48.152;11.530;2024-02-14T21:56:28;95979.19;;;12.63;78.42
56600;BME280;51832;48.152;11.530;2024-02-14T22:01:28;95983.69;;;12.26;80.13
56600;BME280;51832;48.152;11.530;2024-02-14T22:06:29;95978.84;;;12.59;78.15
56600;BME280;51832;48.152;11.530;2024-02-14T22:11:29;95988.03;;;12.57;78.54
56600;BME280;51832;48.152;11.530;2024-02-14T22:16:30;95981.34;;;12.36;79.37
56600;BME280;51832;48.152;11.530;2024-02-14T22:21:30;95987.44;;;12.55;78.48
56600;BME280;51832;48.152;11.530;2024-02-14T22:26:32;95990.00;;;12.43;79.82
56600;BME280;51832;48.152;11.530;2024-02-14T22:31:32;95990.94;;;12.49;79.50
56600;BME280;51832;48.152;11.530;2024-02-14T22:36:33;95983.97;;;12.54;79.16
56600;BME280;51832;48.152;11.530;2024-02-14T22:41:33;95982.28;;;12.23;80.12
56600;BME280;51832;48.152;11.530;2024-02-14T22:46:36;95987.03;;;12.33;79.08
56600;BME280;51832;48.152;11.530;2024-02-14T22:51:41;95980.06;;;12.20;79.41
56600;BME280;51832;48.152;11.530;2024-02-14T22:56:41;95976.84;;;12.18;79.12
56600;BME280;51832;48.152;11.530;2024-02-14T23:01:42;95979.66;;;12.23;77.83
56600;BME280;51832;48.152;11.530;2024-02-14T23:06:42;95981.56;;;12.34;77.26
56600;BME280;51832;48.152;11.530;2024-02-14T23:11:43;95981.91;;;12.20;78.39
56600;BME280;51832;48.152;11.530;2024-02-14T23:16:43;95980.06;;;12.20;77.78
56600;BME280;51832;48.152;11.530;2024-02-14T23:21:44;95982.56;;;12.15;77.74
56600;BME280;51832;48.152;11.530;2024-02-14T23:26:45;95991.72;;;12.31;77.41
56600;BME280;51832;48.152;11.530;2024-02-14T23:31:45;95984.28;;;12.28;76.61
56600;BME280;51832;48.152;11.530;2024-02-14T23:36:47;95980.50;;;12.17;76.88
56600;BME280;51832;48.152;11.530;2024-02-14T23:41:48;95983.31;;;12.22;76.52
56600;BME280;51832;48.152;11.530;2024-02-14T23:46:48;95975.09;;;12.12;76.65
56600;BME280;51832;48.152;11.530;2024-02-14T23:51:48;95974.41;;;12.17;75.92
56600;BME280;51832;48.152;11.530;2024-02-14T23:56:49;95978.84;;;12.23;76.28
